This is the latest recevied weather packets stored in our database for station/object EB5AGF-13. If no packets are shown the sender has not sent any weather packets the latest 10 day(s).
| Time | Temp. | Humidity | Pressure | Rain* | Wind** | Luminosity | Snow |
|---|---|---|---|---|---|---|---|
| 1777675900 | 18.33° C | 88% | 1019.3 hPa | 0 mm | 0.89 m/s, 43° | 0 W/m² | - |
| 1777675596 | 18.33° C | 88% | 1019.4 hPa | 0 mm | 0.45 m/s, 33° | 0 W/m² | - |
| 1777675294 | 18.89° C | 87% | 1019.2 hPa | 0 mm | 0.89 m/s, 333° | 0 W/m² | - |
| 1777674693 | 18.89° C | 87% | 1019.5 hPa | 0 mm | 0.45 m/s, 4° | 0 W/m² | - |
| 1777674394 | 18.89° C | 87% | 1019.2 hPa | 0 mm | 0.89 m/s, 55° | 0 W/m² | - |
| 1777674093 | 18.89° C | 87% | 1019.3 hPa | 0 mm | 0.89 m/s, 352° | 0 W/m² | - |
| 1777673788 | 18.89° C | 87% | 1019.4 hPa | 0 mm | 0 m/s | 0 W/m² | - |
| 1777673484 | 18.89° C | 87% | 1019.4 hPa | 0 mm | 0.45 m/s, 10° | 0 W/m² | - |
| 1777673180 | 18.89° C | 88% | 1019.2 hPa | 0 mm | 0.89 m/s, 37° | 0 W/m² | - |
| 1777672876 | 18.89° C | 88% | 1019.4 hPa | 0 mm | 0.45 m/s, 28° | 0 W/m² | - |
| 1777672572 | 18.89° C | 88% | 1019.4 hPa | 0 mm | 0.89 m/s, 337° | 0 W/m² | - |
| 1777672268 | 18.89° C | 88% | 1019.2 hPa | 0 mm | 1.34 m/s, 14° | 0 W/m² | - |
| 1777671964 | 18.89° C | 88% | 1019.2 hPa | 0 mm | 0.45 m/s, 55° | 0 W/m² | - |
| 1777671660 | 18.89° C | 88% | 1019.3 hPa | 0 mm | 0.45 m/s, 43° | 0 W/m² | - |
| 1777671356 | 18.89° C | 88% | 1019.2 hPa | 0 mm | 0.45 m/s, 32° | 0 W/m² | - |
| 1777671052 | 18.33° C | 88% | 1019 hPa | 0 mm | 0.45 m/s, 350° | 0 W/m² | - |
| 1777670748 | 18.33° C | 88% | 1019.3 hPa | 0 mm | 0.89 m/s, 29° | 0 W/m² | - |
| 1777670444 | 18.33° C | 88% | 1019.1 hPa | 0 mm | 0.89 m/s, 350° | 0 W/m² | - |
| 1777670140 | 18.33° C | 87% | 1019.1 hPa | 0 mm | 0.45 m/s, 353° | 0 W/m² | - |
| 1777669833 | 18.33° C | 87% | 1019.5 hPa | 0 mm | 0 m/s | 0 W/m² | - |
| 1777669531 | 18.33° C | 87% | 1019.5 hPa | 0 mm | 0 m/s | 0 W/m² | - |
| 1777669228 | 18.33° C | 87% | 1019.4 hPa | 0 mm | 0 m/s | 0 W/m² | - |
| 1777668924 | 18.33° C | 87% | 1019.6 hPa | 0 mm | 0.89 m/s, 23° | 0 W/m² | - |
| 1777668620 | 18.33° C | 87% | 1019.1 hPa | 0 mm | 0.45 m/s, 358° | 0 W/m² | - |
| 1777668316 | 18.89° C | 87% | 1019 hPa | 0 mm | 0 m/s | 0 W/m² | - |
* Rain latest hour (hover to see other rain measurements)
** Current wind speed in m/s (hover to see current wind gust speed)